sensor_id;sensor_type;location;lat;lon;timestamp;P1;durP1;ratioP1;P2;durP2;ratioP2
35324;SDS011;35135;47.510;19.036;2024-01-27T00:00:06;1.65;;;1.30;;
35324;SDS011;35135;47.510;19.036;2024-01-27T00:02:33;2.28;;;1.55;;
35324;SDS011;35135;47.510;19.036;2024-01-27T00:04:58;2.25;;;1.58;;
35324;SDS011;35135;47.510;19.036;2024-01-27T00:07:24;2.35;;;1.83;;
35324;SDS011;35135;47.510;19.036;2024-01-27T00:09:52;1.90;;;1.60;;
35324;SDS011;35135;47.510;19.036;2024-01-27T00:12:17;2.05;;;1.33;;
35324;SDS011;35135;47.510;19.036;2024-01-27T00:14:43;2.28;;;1.75;;
35324;SDS011;35135;47.510;19.036;2024-01-27T00:17:09;1.88;;;1.35;;
35324;SDS011;35135;47.510;19.036;2024-01-27T00:19:35;2.92;;;1.75;;
35324;SDS011;35135;47.510;19.036;2024-01-27T00:22:01;1.88;;;1.52;;
35324;SDS011;35135;47.510;19.036;2024-01-27T00:24:27;2.25;;;1.70;;
35324;SDS011;35135;47.510;19.036;2024-01-27T00:26:53;2.40;;;1.40;;
35324;SDS011;35135;47.510;19.036;2024-01-27T00:29:19;2.50;;;1.80;;
35324;SDS011;35135;47.510;19.036;2024-01-27T00:31:45;2.30;;;1.42;;
35324;SDS011;35135;47.510;19.036;2024-01-27T00:34:10;1.85;;;1.58;;
35324;SDS011;35135;47.510;19.036;2024-01-27T00:36:36;2.17;;;1.33;;
35324;SDS011;35135;47.510;19.036;2024-01-27T00:39:02;2.65;;;1.60;;
35324;SDS011;35135;47.510;19.036;2024-01-27T00:41:28;3.10;;;1.70;;
35324;SDS011;35135;47.510;19.036;2024-01-27T00:43:54;2.88;;;1.42;;
35324;SDS011;35135;47.510;19.036;2024-01-27T00:46:20;2.72;;;1.70;;
35324;SDS011;35135;47.510;19.036;2024-01-27T00:48:46;2.30;;;1.80;;
35324;SDS011;35135;47.510;19.036;2024-01-27T00:51:12;3.08;;;1.70;;
35324;SDS011;35135;47.510;19.036;2024-01-27T00:53:38;2.10;;;1.67;;
35324;SDS011;35135;47.510;19.036;2024-01-27T00:56:04;2.67;;;1.58;;
35324;SDS011;35135;47.510;19.036;2024-01-27T00:58:30;1.65;;;1.27;;
35324;SDS011;35135;47.510;19.036;2024-01-27T01:00:56;2.05;;;1.45;;
35324;SDS011;35135;47.510;19.036;2024-01-27T01:03:23;1.80;;;1.50;;
35324;SDS011;35135;47.510;19.036;2024-01-27T01:05:49;1.92;;;1.40;;
35324;SDS011;35135;47.510;19.036;2024-01-27T01:08:15;2.60;;;1.50;;
35324;SDS011;35135;47.510;19.036;2024-01-27T01:10:41;2.25;;;1.42;;
35324;SDS011;35135;47.510;19.036;2024-01-27T01:13:06;2.42;;;1.45;;
35324;SDS011;35135;47.510;19.036;2024-01-27T01:15:32;2.38;;;1.52;;
35324;SDS011;35135;47.510;19.036;2024-01-27T01:17:58;2.13;;;1.30;;
35324;SDS011;35135;47.510;19.036;2024-01-27T01:20:23;2.00;;;1.40;;
35324;SDS011;35135;47.510;19.036;2024-01-27T01:22:51;2.33;;;1.38;;
35324;SDS011;35135;47.510;19.036;2024-01-27T01:25:17;1.77;;;1.38;;
35324;SDS011;35135;47.510;19.036;2024-01-27T01:27:42;2.65;;;1.40;;
35324;SDS011;35135;47.510;19.036;2024-01-27T01:30:08;2.20;;;1.25;;
35324;SDS011;35135;47.510;19.036;2024-01-27T01:32:35;2.53;;;1.48;;
35324;SDS011;35135;47.510;19.036;2024-01-27T01:35:01;1.77;;;1.20;;
35324;SDS011;35135;47.510;19.036;2024-01-27T01:37:27;2.30;;;1.35;;
35324;SDS011;35135;47.510;19.036;2024-01-27T01:39:52;1.65;;;1.13;;
35324;SDS011;35135;47.510;19.036;2024-01-27T01:42:18;2.05;;;1.20;;
35324;SDS011;35135;47.510;19.036;2024-01-27T01:44:48;1.88;;;1.20;;
35324;SDS011;35135;47.510;19.036;2024-01-27T01:47:13;1.67;;;1.17;;
35324;SDS011;35135;47.510;19.036;2024-01-27T01:49:39;2.05;;;1.27;;
35324;SDS011;35135;47.510;19.036;2024-01-27T01:52:05;1.55;;;1.02;;
35324;SDS011;35135;47.510;19.036;2024-01-27T01:54:32;2.20;;;1.15;;
35324;SDS011;35135;47.510;19.036;2024-01-27T01:56:58;1.73;;;1.20;;
35324;SDS011;35135;47.510;19.036;2024-01-27T01:59:24;1.10;;;0.90;;
35324;SDS011;35135;47.510;19.036;2024-01-27T02:01:50;1.80;;;0.98;;
35324;SDS011;35135;47.510;19.036;2024-01-27T02:04:15;1.20;;;0.90;;
35324;SDS011;35135;47.510;19.036;2024-01-27T02:06:41;1.55;;;0.90;;
35324;SDS011;35135;47.510;19.036;2024-01-27T02:09:07;1.20;;;0.85;;
35324;SDS011;35135;47.510;19.036;2024-01-27T02:11:32;2.03;;;1.05;;
35324;SDS011;35135;47.510;19.036;2024-01-27T02:13:58;2.55;;;0.98;;
35324;SDS011;35135;47.510;19.036;2024-01-27T02:16:24;1.05;;;0.65;;
35324;SDS011;35135;47.510;19.036;2024-01-27T02:18:49;1.42;;;0.82;;
35324;SDS011;35135;47.510;19.036;2024-01-27T02:21:15;1.65;;;1.08;;
35324;SDS011;35135;47.510;19.036;2024-01-27T02:23:41;1.27;;;0.90;;
35324;SDS011;35135;47.510;19.036;2024-01-27T02:26:06;1.50;;;1.00;;
35324;SDS011;35135;47.510;19.036;2024-01-27T02:28:32;1.73;;;0.98;;
35324;SDS011;35135;47.510;19.036;2024-01-27T02:30:58;0.80;;;0.65;;
35324;SDS011;35135;47.510;19.036;2024-01-27T02:33:27;1.63;;;0.93;;
35324;SDS011;35135;47.510;19.036;2024-01-27T02:35:54;1.67;;;0.98;;
35324;SDS011;35135;47.510;19.036;2024-01-27T02:38:19;2.45;;;0.93;;
35324;SDS011;35135;47.510;19.036;2024-01-27T02:40:45;1.38;;;0.70;;
35324;SDS011;35135;47.510;19.036;2024-01-27T02:43:11;1.23;;;0.80;;
35324;SDS011;35135;47.510;19.036;2024-01-27T02:45:37;1.50;;;0.75;;
35324;SDS011;35135;47.510;19.036;2024-01-27T02:48:03;1.52;;;0.90;;
35324;SDS011;35135;47.510;19.036;2024-01-27T02:50:28;1.42;;;0.80;;
35324;SDS011;35135;47.510;19.036;2024-01-27T02:52:54;1.30;;;0.90;;
35324;SDS011;35135;47.510;19.036;2024-01-27T02:55:20;1.52;;;0.93;;
35324;SDS011;35135;47.510;19.036;2024-01-27T02:57:46;0.93;;;0.70;;
35324;SDS011;35135;47.510;19.036;2024-01-27T03:00:11;2.03;;;0.90;;
35324;SDS011;35135;47.510;19.036;2024-01-27T03:02:37;1.70;;;1.00;;
35324;SDS011;35135;47.510;19.036;2024-01-27T03:05:03;1.08;;;0.70;;
35324;SDS011;35135;47.510;19.036;2024-01-27T03:07:29;1.05;;;0.80;;
35324;SDS011;35135;47.510;19.036;2024-01-27T03:09:54;1.52;;;0.60;;
35324;SDS011;35135;47.510;19.036;2024-01-27T03:12:20;1.35;;;0.80;;
35324;SDS011;35135;47.510;19.036;2024-01-27T03:14:48;1.58;;;0.70;;
35324;SDS011;35135;47.510;19.036;2024-01-27T03:17:14;1.52;;;0.73;;
35324;SDS011;35135;47.510;19.036;2024-01-27T03:19:40;1.73;;;0.90;;
35324;SDS011;35135;47.510;19.036;2024-01-27T03:22:06;1.55;;;0.70;;
35324;SDS011;35135;47.510;19.036;2024-01-27T03:24:31;1.15;;;0.60;;
35324;SDS011;35135;47.510;19.036;2024-01-27T03:26:57;1.52;;;0.77;;
35324;SDS011;35135;47.510;19.036;2024-01-27T03:29:23;1.05;;;0.73;;
35324;SDS011;35135;47.510;19.036;2024-01-27T03:31:48;1.00;;;0.50;;
35324;SDS011;35135;47.510;19.036;2024-01-27T03:34:14;1.60;;;0.82;;
35324;SDS011;35135;47.510;19.036;2024-01-27T03:36:40;0.73;;;0.55;;
35324;SDS011;35135;47.510;19.036;2024-01-27T03:39:06;1.00;;;0.60;;
35324;SDS011;35135;47.510;19.036;2024-01-27T03:41:33;0.88;;;0.57;;
35324;SDS011;35135;47.510;19.036;2024-01-27T03:43:58;1.05;;;0.70;;
35324;SDS011;35135;47.510;19.036;2024-01-27T03:46:24;0.85;;;0.65;;
35324;SDS011;35135;47.510;19.036;2024-01-27T03:48:50;0.68;;;0.60;;
35324;SDS011;35135;47.510;19.036;2024-01-27T03:51:15;1.08;;;0.73;;
35324;SDS011;35135;47.510;19.036;2024-01-27T03:53:41;0.77;;;0.57;;
35324;SDS011;35135;47.510;19.036;2024-01-27T03:56:07;1.25;;;0.60;;
35324;SDS011;35135;47.510;19.036;2024-01-27T03:58:36;0.68;;;0.57;;
35324;SDS011;35135;47.510;19.036;2024-01-27T04:01:03;1.33;;;0.60;;
35324;SDS011;35135;47.510;19.036;2024-01-27T04:03:29;1.30;;;0.60;;
35324;SDS011;35135;47.510;19.036;2024-01-27T04:05:55;1.65;;;0.60;;
35324;SDS011;35135;47.510;19.036;2024-01-27T04:08:20;1.50;;;0.52;;
35324;SDS011;35135;47.510;19.036;2024-01-27T04:10:46;1.00;;;0.50;;
35324;SDS011;35135;47.510;19.036;2024-01-27T04:13:12;1.13;;;0.50;;
35324;SDS011;35135;47.510;19.036;2024-01-27T04:15:38;1.40;;;0.60;;
35324;SDS011;35135;47.510;19.036;2024-01-27T04:18:04;1.27;;;0.65;;
35324;SDS011;35135;47.510;19.036;2024-01-27T04:20:32;1.55;;;0.55;;
35324;SDS011;35135;47.510;19.036;2024-01-27T04:22:58;0.50;;;0.40;;
35324;SDS011;35135;47.510;19.036;2024-01-27T04:25:24;1.05;;;0.63;;
35324;SDS011;35135;47.510;19.036;2024-01-27T04:27:50;0.60;;;0.40;;
35324;SDS011;35135;47.510;19.036;2024-01-27T04:30:15;0.70;;;0.40;;
35324;SDS011;35135;47.510;19.036;2024-01-27T04:32:41;0.70;;;0.52;;
35324;SDS011;35135;47.510;19.036;2024-01-27T04:35:10;1.15;;;0.63;;
35324;SDS011;35135;47.510;19.036;2024-01-27T04:37:36;0.77;;;0.50;;
35324;SDS011;35135;47.510;19.036;2024-01-27T04:40:03;1.02;;;0.55;;
35324;SDS011;35135;47.510;19.036;2024-01-27T04:42:37;0.93;;;0.60;;
35324;SDS011;35135;47.510;19.036;2024-01-27T04:45:04;0.88;;;0.35;;
35324;SDS011;35135;47.510;19.036;2024-01-27T04:47:30;3.00;;;0.50;;
35324;SDS011;35135;47.510;19.036;2024-01-27T04:49:56;1.13;;;0.60;;
35324;SDS011;35135;47.510;19.036;2024-01-27T04:52:22;0.63;;;0.38;;
35324;SDS011;35135;47.510;19.036;2024-01-27T04:54:48;1.35;;;0.73;;
35324;SDS011;35135;47.510;19.036;2024-01-27T04:57:14;1.70;;;0.40;;
35324;SDS011;35135;47.510;19.036;2024-01-27T04:59:40;0.90;;;0.50;;
35324;SDS011;35135;47.510;19.036;2024-01-27T05:02:05;1.45;;;0.57;;
35324;SDS011;35135;47.510;19.036;2024-01-27T05:04:31;0.57;;;0.40;;
35324;SDS011;35135;47.510;19.036;2024-01-27T05:06:57;0.88;;;0.52;;
35324;SDS011;35135;47.510;19.036;2024-01-27T05:09:23;0.82;;;0.43;;
35324;SDS011;35135;47.510;19.036;2024-01-27T05:11:49;1.10;;;0.65;;
35324;SDS011;35135;47.510;19.036;2024-01-27T05:14:17;1.38;;;0.40;;
35324;SDS011;35135;47.510;19.036;2024-01-27T05:16:43;0.98;;;0.50;;
35324;SDS011;35135;47.510;19.036;2024-01-27T05:19:10;0.75;;;0.30;;
35324;SDS011;35135;47.510;19.036;2024-01-27T05:21:35;0.98;;;0.60;;
35324;SDS011;35135;47.510;19.036;2024-01-27T05:24:01;1.40;;;0.55;;
35324;SDS011;35135;47.510;19.036;2024-01-27T05:26:27;1.15;;;0.60;;
35324;SDS011;35135;47.510;19.036;2024-01-27T05:28:52;0.90;;;0.40;;
35324;SDS011;35135;47.510;19.036;2024-01-27T05:31:18;1.90;;;0.50;;
35324;SDS011;35135;47.510;19.036;2024-01-27T05:33:44;0.82;;;0.50;;
35324;SDS011;35135;47.510;19.036;2024-01-27T05:36:09;0.68;;;0.60;;
35324;SDS011;35135;47.510;19.036;2024-01-27T05:38:35;0.70;;;0.50;;
35324;SDS011;35135;47.510;19.036;2024-01-27T05:41:01;1.17;;;0.50;;
35324;SDS011;35135;47.510;19.036;2024-01-27T05:43:27;0.85;;;0.45;;
35324;SDS011;35135;47.510;19.036;2024-01-27T05:45:53;0.98;;;0.40;;
35324;SDS011;35135;47.510;19.036;2024-01-27T05:48:19;1.08;;;0.63;;
35324;SDS011;35135;47.510;19.036;2024-01-27T05:50:54;1.45;;;0.70;;
35324;SDS011;35135;47.510;19.036;2024-01-27T05:53:21;1.45;;;0.70;;
35324;SDS011;35135;47.510;19.036;2024-01-27T05:55:47;1.45;;;0.47;;
35324;SDS011;35135;47.510;19.036;2024-01-27T05:58:13;1.05;;;0.40;;
35324;SDS011;35135;47.510;19.036;2024-01-27T06:00:39;0.93;;;0.40;;
35324;SDS011;35135;47.510;19.036;2024-01-27T06:03:04;1.23;;;0.50;;
35324;SDS011;35135;47.510;19.036;2024-01-27T06:05:30;1.08;;;0.50;;
35324;SDS011;35135;47.510;19.036;2024-01-27T06:07:56;1.13;;;0.40;;
35324;SDS011;35135;47.510;19.036;2024-01-27T06:10:21;0.95;;;0.52;;
35324;SDS011;35135;47.510;19.036;2024-01-27T06:12:48;1.85;;;0.52;;
35324;SDS011;35135;47.510;19.036;2024-01-27T06:15:14;1.58;;;0.73;;
35324;SDS011;35135;47.510;19.036;2024-01-27T06:17:40;0.80;;;0.50;;
35324;SDS011;35135;47.510;19.036;2024-01-27T06:20:06;1.42;;;0.60;;
35324;SDS011;35135;47.510;19.036;2024-01-27T06:22:32;1.33;;;0.50;;
35324;SDS011;35135;47.510;19.036;2024-01-27T06:24:58;1.48;;;0.75;;
35324;SDS011;35135;47.510;19.036;2024-01-27T06:27:24;2.95;;;0.70;;
35324;SDS011;35135;47.510;19.036;2024-01-27T06:29:49;1.13;;;0.60;;
35324;SDS011;35135;47.510;19.036;2024-01-27T06:32:15;1.15;;;0.60;;
35324;SDS011;35135;47.510;19.036;2024-01-27T06:34:41;1.48;;;0.63;;
35324;SDS011;35135;47.510;19.036;2024-01-27T06:37:07;1.17;;;0.50;;
35324;SDS011;35135;47.510;19.036;2024-01-27T06:39:32;2.08;;;0.70;;
35324;SDS011;35135;47.510;19.036;2024-01-27T06:41:58;1.98;;;0.90;;
35324;SDS011;35135;47.510;19.036;2024-01-27T06:44:24;2.08;;;0.60;;
35324;SDS011;35135;47.510;19.036;2024-01-27T06:46:49;1.35;;;0.50;;
35324;SDS011;35135;47.510;19.036;2024-01-27T06:49:16;1.75;;;0.60;;
35324;SDS011;35135;47.510;19.036;2024-01-27T06:51:43;2.17;;;0.60;;
35324;SDS011;35135;47.510;19.036;2024-01-27T06:54:09;1.02;;;0.40;;
35324;SDS011;35135;47.510;19.036;2024-01-27T06:56:34;1.77;;;0.70;;
35324;SDS011;35135;47.510;19.036;2024-01-27T06:59:00;2.35;;;0.70;;
35324;SDS011;35135;47.510;19.036;2024-01-27T07:01:26;1.90;;;0.60;;
35324;SDS011;35135;47.510;19.036;2024-01-27T07:03:51;1.67;;;0.68;;
35324;SDS011;35135;47.510;19.036;2024-01-27T07:06:17;1.75;;;0.88;;
35324;SDS011;35135;47.510;19.036;2024-01-27T07:08:43;2.17;;;0.77;;
35324;SDS011;35135;47.510;19.036;2024-01-27T07:11:09;1.85;;;0.65;;
35324;SDS011;35135;47.510;19.036;2024-01-27T07:13:34;1.23;;;0.60;;
35324;SDS011;35135;47.510;19.036;2024-01-27T07:16:00;2.38;;;0.90;;
35324;SDS011;35135;47.510;19.036;2024-01-27T07:18:26;0.98;;;0.57;;
35324;SDS011;35135;47.510;19.036;2024-01-27T07:20:52;2.85;;;0.70;;
35324;SDS011;35135;47.510;19.036;2024-01-27T07:23:19;0.73;;;0.40;;
35324;SDS011;35135;47.510;19.036;2024-01-27T07:25:45;1.58;;;0.75;;
35324;SDS011;35135;47.510;19.036;2024-01-27T07:28:11;1.02;;;0.60;;
35324;SDS011;35135;47.510;19.036;2024-01-27T07:30:37;1.50;;;0.52;;
35324;SDS011;35135;47.510;19.036;2024-01-27T07:33:03;1.45;;;0.65;;
35324;SDS011;35135;47.510;19.036;2024-01-27T07:35:29;2.10;;;0.88;;
35324;SDS011;35135;47.510;19.036;2024-01-27T07:37:56;1.60;;;0.50;;
35324;SDS011;35135;47.510;19.036;2024-01-27T07:40:22;1.40;;;0.60;;
35324;SDS011;35135;47.510;19.036;2024-01-27T07:42:48;1.88;;;0.85;;
35324;SDS011;35135;47.510;19.036;2024-01-27T07:45:14;1.52;;;0.60;;
35324;SDS011;35135;47.510;19.036;2024-01-27T07:47:40;1.73;;;0.80;;
35324;SDS011;35135;47.510;19.036;2024-01-27T07:50:06;1.10;;;0.60;;
35324;SDS011;35135;47.510;19.036;2024-01-27T07:52:32;1.42;;;0.50;;
35324;SDS011;35135;47.510;19.036;2024-01-27T07:54:58;2.20;;;0.75;;
35324;SDS011;35135;47.510;19.036;2024-01-27T07:57:23;1.35;;;0.70;;
35324;SDS011;35135;47.510;19.036;2024-01-27T07:59:49;1.40;;;0.47;;
35324;SDS011;35135;47.510;19.036;2024-01-27T08:02:14;0.95;;;0.40;;
35324;SDS011;35135;47.510;19.036;2024-01-27T08:04:40;1.48;;;0.70;;
35324;SDS011;35135;47.510;19.036;2024-01-27T08:07:06;1.70;;;0.88;;
35324;SDS011;35135;47.510;19.036;2024-01-27T08:09:34;1.10;;;0.60;;
35324;SDS011;35135;47.510;19.036;2024-01-27T08:12:00;1.58;;;0.60;;
35324;SDS011;35135;47.510;19.036;2024-01-27T08:14:27;1.45;;;0.77;;
35324;SDS011;35135;47.510;19.036;2024-01-27T08:16:55;1.88;;;0.60;;
35324;SDS011;35135;47.510;19.036;2024-01-27T08:19:21;1.52;;;0.50;;
35324;SDS011;35135;47.510;19.036;2024-01-27T08:21:48;2.38;;;0.60;;
35324;SDS011;35135;47.510;19.036;2024-01-27T08:24:14;1.08;;;0.50;;
35324;SDS011;35135;47.510;19.036;2024-01-27T08:26:40;1.60;;;0.60;;
35324;SDS011;35135;47.510;19.036;2024-01-27T08:29:07;2.30;;;0.63;;
35324;SDS011;35135;47.510;19.036;2024-01-27T08:31:33;2.00;;;0.68;;
35324;SDS011;35135;47.510;19.036;2024-01-27T08:33:59;1.88;;;0.68;;
35324;SDS011;35135;47.510;19.036;2024-01-27T08:36:25;1.45;;;0.65;;
35324;SDS011;35135;47.510;19.036;2024-01-27T08:38:50;1.55;;;0.63;;
35324;SDS011;35135;47.510;19.036;2024-01-27T08:41:16;1.67;;;0.68;;
35324;SDS011;35135;47.510;19.036;2024-01-27T08:43:41;1.42;;;0.52;;
35324;SDS011;35135;47.510;19.036;2024-01-27T08:46:07;1.40;;;0.60;;
35324;SDS011;35135;47.510;19.036;2024-01-27T08:48:36;1.38;;;0.70;;
35324;SDS011;35135;47.510;19.036;2024-01-27T08:51:02;1.58;;;0.63;;
35324;SDS011;35135;47.510;19.036;2024-01-27T08:53:28;1.38;;;0.77;;
35324;SDS011;35135;47.510;19.036;2024-01-27T08:55:53;1.55;;;0.70;;
35324;SDS011;35135;47.510;19.036;2024-01-27T08:58:19;2.00;;;0.95;;
35324;SDS011;35135;47.510;19.036;2024-01-27T09:00:45;1.10;;;0.70;;
35324;SDS011;35135;47.510;19.036;2024-01-27T09:03:10;1.38;;;0.60;;
35324;SDS011;35135;47.510;19.036;2024-01-27T09:05:37;1.60;;;0.57;;
35324;SDS011;35135;47.510;19.036;2024-01-27T09:08:04;1.55;;;0.70;;
35324;SDS011;35135;47.510;19.036;2024-01-27T09:10:31;1.33;;;0.60;;
35324;SDS011;35135;47.510;19.036;2024-01-27T09:12:56;1.55;;;0.63;;
35324;SDS011;35135;47.510;19.036;2024-01-27T09:15:22;1.50;;;0.77;;
35324;SDS011;35135;47.510;19.036;2024-01-27T09:17:48;1.67;;;0.88;;
35324;SDS011;35135;47.510;19.036;2024-01-27T09:20:13;1.50;;;0.65;;
35324;SDS011;35135;47.510;19.036;2024-01-27T09:22:39;1.70;;;0.93;;
35324;SDS011;35135;47.510;19.036;2024-01-27T09:25:06;1.27;;;0.60;;
35324;SDS011;35135;47.510;19.036;2024-01-27T09:27:33;1.55;;;0.85;;
35324;SDS011;35135;47.510;19.036;2024-01-27T09:29:59;0.98;;;0.70;;
35324;SDS011;35135;47.510;19.036;2024-01-27T09:32:25;1.30;;;0.65;;
35324;SDS011;35135;47.510;19.036;2024-01-27T09:34:50;1.15;;;0.70;;
35324;SDS011;35135;47.510;19.036;2024-01-27T09:37:18;1.17;;;0.57;;
35324;SDS011;35135;47.510;19.036;2024-01-27T09:39:44;1.10;;;0.65;;
35324;SDS011;35135;47.510;19.036;2024-01-27T09:42:10;1.63;;;0.73;;
35324;SDS011;35135;47.510;19.036;2024-01-27T09:44:41;2.25;;;0.70;;
35324;SDS011;35135;47.510;19.036;2024-01-27T09:47:09;1.17;;;0.50;;
35324;SDS011;35135;47.510;19.036;2024-01-27T09:49:36;1.23;;;0.73;;
35324;SDS011;35135;47.510;19.036;2024-01-27T09:52:04;1.50;;;0.70;;
35324;SDS011;35135;47.510;19.036;2024-01-27T09:54:30;1.13;;;0.60;;
35324;SDS011;35135;47.510;19.036;2024-01-27T09:56:56;1.25;;;0.68;;
35324;SDS011;35135;47.510;19.036;2024-01-27T09:59:23;3.00;;;0.98;;
35324;SDS011;35135;47.510;19.036;2024-01-27T10:01:50;1.20;;;0.60;;
35324;SDS011;35135;47.510;19.036;2024-01-27T10:04:18;1.85;;;0.75;;
35324;SDS011;35135;47.510;19.036;2024-01-27T10:06:46;1.83;;;0.70;;
35324;SDS011;35135;47.510;19.036;2024-01-27T10:09:13;1.20;;;0.70;;
35324;SDS011;35135;47.510;19.036;2024-01-27T10:11:39;1.73;;;0.80;;
35324;SDS011;35135;47.510;19.036;2024-01-27T10:14:10;1.02;;;0.70;;
35324;SDS011;35135;47.510;19.036;2024-01-27T10:16:40;1.55;;;0.77;;
35324;SDS011;35135;47.510;19.036;2024-01-27T10:19:16;1.27;;;0.60;;
35324;SDS011;35135;47.510;19.036;2024-01-27T10:21:43;0.95;;;0.50;;
35324;SDS011;35135;47.510;19.036;2024-01-27T10:24:12;1.25;;;0.70;;
35324;SDS011;35135;47.510;19.036;2024-01-27T10:26:41;1.60;;;0.55;;
35324;SDS011;35135;47.510;19.036;2024-01-27T10:29:07;1.48;;;0.70;;
35324;SDS011;35135;47.510;19.036;2024-01-27T10:31:34;1.27;;;0.68;;
35324;SDS011;35135;47.510;19.036;2024-01-27T10:34:01;1.73;;;0.60;;
35324;SDS011;35135;47.510;19.036;2024-01-27T10:36:41;1.83;;;0.77;;
35324;SDS011;35135;47.510;19.036;2024-01-27T10:39:15;1.77;;;0.65;;
35324;SDS011;35135;47.510;19.036;2024-01-27T10:41:45;1.40;;;0.68;;
35324;SDS011;35135;47.510;19.036;2024-01-27T10:44:13;1.20;;;0.60;;
35324;SDS011;35135;47.510;19.036;2024-01-27T10:46:42;1.25;;;0.52;;
35324;SDS011;35135;47.510;19.036;2024-01-27T10:49:11;1.67;;;0.60;;
35324;SDS011;35135;47.510;19.036;2024-01-27T10:51:42;2.42;;;0.75;;
35324;SDS011;35135;47.510;19.036;2024-01-27T10:54:18;1.65;;;0.77;;
35324;SDS011;35135;47.510;19.036;2024-01-27T10:56:55;1.95;;;0.75;;
35324;SDS011;35135;47.510;19.036;2024-01-27T10:59:23;1.88;;;0.60;;
35324;SDS011;35135;47.510;19.036;2024-01-27T11:01:52;1.40;;;0.70;;
35324;SDS011;35135;47.510;19.036;2024-01-27T11:04:19;1.60;;;0.70;;
35324;SDS011;35135;47.510;19.036;2024-01-27T11:06:47;1.65;;;0.68;;
35324;SDS011;35135;47.510;19.036;2024-01-27T11:09:13;1.65;;;0.77;;
35324;SDS011;35135;47.510;19.036;2024-01-27T11:11:40;1.00;;;0.60;;
35324;SDS011;35135;47.510;19.036;2024-01-27T11:14:08;1.50;;;0.57;;
35324;SDS011;35135;47.510;19.036;2024-01-27T11:16:35;1.50;;;0.70;;
35324;SDS011;35135;47.510;19.036;2024-01-27T11:19:01;1.25;;;0.55;;
35324;SDS011;35135;47.510;19.036;2024-01-27T11:21:27;1.80;;;0.70;;
35324;SDS011;35135;47.510;19.036;2024-01-27T11:23:53;1.90;;;0.85;;
35324;SDS011;35135;47.510;19.036;2024-01-27T11:26:19;2.25;;;0.77;;
35324;SDS011;35135;47.510;19.036;2024-01-27T11:28:46;2.63;;;1.05;;
35324;SDS011;35135;47.510;19.036;2024-01-27T11:31:12;1.55;;;0.82;;
35324;SDS011;35135;47.510;19.036;2024-01-27T11:36:19;3.15;;;0.80;;
35324;SDS011;35135;47.510;19.036;2024-01-27T11:38:47;1.67;;;0.80;;
35324;SDS011;35135;47.510;19.036;2024-01-27T11:41:13;1.65;;;1.02;;
35324;SDS011;35135;47.510;19.036;2024-01-27T11:43:51;1.73;;;0.85;;
35324;SDS011;35135;47.510;19.036;2024-01-27T11:46:17;2.38;;;0.80;;
35324;SDS011;35135;47.510;19.036;2024-01-27T11:48:43;2.67;;;0.80;;
35324;SDS011;35135;47.510;19.036;2024-01-27T11:51:12;2.20;;;0.82;;
35324;SDS011;35135;47.510;19.036;2024-01-27T11:53:38;2.55;;;0.88;;
35324;SDS011;35135;47.510;19.036;2024-01-27T11:56:04;2.10;;;0.95;;
35324;SDS011;35135;47.510;19.036;2024-01-27T11:58:31;2.30;;;0.65;;
35324;SDS011;35135;47.510;19.036;2024-01-27T12:00:57;1.65;;;0.70;;
35324;SDS011;35135;47.510;19.036;2024-01-27T12:03:26;2.15;;;0.75;;
35324;SDS011;35135;47.510;19.036;2024-01-27T12:05:52;1.50;;;0.68;;
35324;SDS011;35135;47.510;19.036;2024-01-27T12:08:18;1.75;;;0.80;;
35324;SDS011;35135;47.510;19.036;2024-01-27T12:10:44;1.70;;;0.75;;
35324;SDS011;35135;47.510;19.036;2024-01-27T12:13:09;2.47;;;0.80;;
35324;SDS011;35135;47.510;19.036;2024-01-27T12:15:35;1.52;;;0.75;;
35324;SDS011;35135;47.510;19.036;2024-01-27T12:18:01;1.58;;;0.80;;
35324;SDS011;35135;47.510;19.036;2024-01-27T12:20:29;1.70;;;0.85;;
35324;SDS011;35135;47.510;19.036;2024-01-27T12:23:07;1.77;;;0.80;;
35324;SDS011;35135;47.510;19.036;2024-01-27T12:25:33;1.80;;;0.75;;
35324;SDS011;35135;47.510;19.036;2024-01-27T12:28:02;1.95;;;0.85;;
35324;SDS011;35135;47.510;19.036;2024-01-27T12:30:28;1.30;;;0.75;;
35324;SDS011;35135;47.510;19.036;2024-01-27T12:32:56;1.30;;;0.90;;
35324;SDS011;35135;47.510;19.036;2024-01-27T12:35:23;1.38;;;0.73;;
35324;SDS011;35135;47.510;19.036;2024-01-27T12:37:49;1.08;;;0.70;;
35324;SDS011;35135;47.510;19.036;2024-01-27T12:40:18;2.08;;;0.90;;
35324;SDS011;35135;47.510;19.036;2024-01-27T12:42:45;1.70;;;0.95;;
35324;SDS011;35135;47.510;19.036;2024-01-27T12:45:11;2.80;;;0.82;;
35324;SDS011;35135;47.510;19.036;2024-01-27T12:47:37;1.77;;;0.75;;
35324;SDS011;35135;47.510;19.036;2024-01-27T12:50:03;1.85;;;0.70;;
35324;SDS011;35135;47.510;19.036;2024-01-27T12:52:29;1.08;;;0.68;;
35324;SDS011;35135;47.510;19.036;2024-01-27T12:54:55;3.85;;;0.90;;
35324;SDS011;35135;47.510;19.036;2024-01-27T12:57:20;1.90;;;0.68;;
35324;SDS011;35135;47.510;19.036;2024-01-27T12:59:46;2.40;;;1.05;;
35324;SDS011;35135;47.510;19.036;2024-01-27T13:02:12;2.28;;;0.80;;
35324;SDS011;35135;47.510;19.036;2024-01-27T13:04:38;2.00;;;0.90;;
35324;SDS011;35135;47.510;19.036;2024-01-27T13:07:04;1.67;;;0.88;;
35324;SDS011;35135;47.510;19.036;2024-01-27T13:09:29;3.03;;;0.93;;
35324;SDS011;35135;47.510;19.036;2024-01-27T13:11:55;2.08;;;0.90;;
35324;SDS011;35135;47.510;19.036;2024-01-27T13:14:21;4.00;;;0.80;;
35324;SDS011;35135;47.510;19.036;2024-01-27T13:16:47;1.98;;;1.00;;
35324;SDS011;35135;47.510;19.036;2024-01-27T13:19:13;3.00;;;1.15;;
35324;SDS011;35135;47.510;19.036;2024-01-27T13:21:39;2.40;;;0.90;;
35324;SDS011;35135;47.510;19.036;2024-01-27T13:24:05;2.03;;;0.80;;
35324;SDS011;35135;47.510;19.036;2024-01-27T13:26:33;2.17;;;0.90;;
35324;SDS011;35135;47.510;19.036;2024-01-27T13:29:03;3.92;;;1.08;;
35324;SDS011;35135;47.510;19.036;2024-01-27T13:31:32;2.55;;;1.00;;
35324;SDS011;35135;47.510;19.036;2024-01-27T13:33:58;2.53;;;1.08;;
35324;SDS011;35135;47.510;19.036;2024-01-27T13:36:24;2.40;;;0.98;;
35324;SDS011;35135;47.510;19.036;2024-01-27T13:38:50;1.85;;;0.75;;
35324;SDS011;35135;47.510;19.036;2024-01-27T13:41:17;2.40;;;1.02;;
35324;SDS011;35135;47.510;19.036;2024-01-27T13:43:43;2.40;;;1.00;;
35324;SDS011;35135;47.510;19.036;2024-01-27T13:46:09;2.75;;;1.20;;
35324;SDS011;35135;47.510;19.036;2024-01-27T13:48:36;2.00;;;0.82;;
35324;SDS011;35135;47.510;19.036;2024-01-27T13:51:02;2.65;;;1.10;;
35324;SDS011;35135;47.510;19.036;2024-01-27T13:53:28;2.58;;;1.00;;
35324;SDS011;35135;47.510;19.036;2024-01-27T13:55:54;4.10;;;1.58;;
35324;SDS011;35135;47.510;19.036;2024-01-27T13:58:20;2.42;;;0.90;;
35324;SDS011;35135;47.510;19.036;2024-01-27T14:00:46;3.17;;;0.93;;
35324;SDS011;35135;47.510;19.036;2024-01-27T14:03:12;2.35;;;0.80;;
35324;SDS011;35135;47.510;19.036;2024-01-27T14:05:38;2.10;;;0.90;;
35324;SDS011;35135;47.510;19.036;2024-01-27T14:08:04;2.95;;;1.15;;
35324;SDS011;35135;47.510;19.036;2024-01-27T14:10:32;2.25;;;0.90;;
35324;SDS011;35135;47.510;19.036;2024-01-27T14:12:57;3.08;;;1.00;;
35324;SDS011;35135;47.510;19.036;2024-01-27T14:15:23;1.85;;;1.00;;
35324;SDS011;35135;47.510;19.036;2024-01-27T14:17:49;2.28;;;0.95;;
35324;SDS011;35135;47.510;19.036;2024-01-27T14:20:15;1.67;;;0.85;;
35324;SDS011;35135;47.510;19.036;2024-01-27T14:22:41;2.05;;;1.13;;
35324;SDS011;35135;47.510;19.036;2024-01-27T14:25:06;3.53;;;1.20;;
35324;SDS011;35135;47.510;19.036;2024-01-27T14:27:33;1.83;;;1.00;;
35324;SDS011;35135;47.510;19.036;2024-01-27T14:30:00;2.20;;;1.15;;